sensor_id;sensor_type;location;lat;lon;timestamp;temperature;humidity
66710;DHT22;53624;0.000;0.000;2022-08-11T04:52:59;18.90;86.10
66710;DHT22;53624;0.000;0.000;2022-08-11T04:56:04;18.90;86.50
66710;DHT22;53624;0.000;0.000;2022-08-11T04:58:59;18.90;86.50
66710;DHT22;53624;0.000;0.000;2022-08-11T05:01:52;18.90;86.30
66710;DHT22;53624;0.000;0.000;2022-08-11T05:10:20;19.40;85.30
66710;DHT22;53624;0.000;0.000;2022-08-11T05:12:52;19.10;87.20
66710;DHT22;53624;0.000;0.000;2022-08-11T05:15:23;19.40;86.10
66710;DHT22;53624;0.000;0.000;2022-08-11T05:18:12;19.60;85.30
66710;DHT22;53624;0.000;0.000;2022-08-11T05:21:00;19.60;85.90
66710;DHT22;53624;0.000;0.000;2022-08-11T05:23:47;19.80;85.90
66710;DHT22;53624;0.000;0.000;2022-08-11T05:26:36;19.90;87.00
66710;DHT22;53624;0.000;0.000;2022-08-11T05:29:25;19.80;86.80
66710;DHT22;53624;0.000;0.000;2022-08-11T05:32:11;20.10;86.10
66710;DHT22;53624;0.000;0.000;2022-08-11T05:34:57;20.10;87.20
66710;DHT22;53624;0.000;0.000;2022-08-11T05:37:30;20.00;87.30
66710;DHT22;53624;0.000;0.000;2022-08-11T05:40:03;20.00;86.40
66710;DHT22;53624;0.000;0.000;2022-08-11T05:42:53;20.10;86.10
66710;DHT22;53624;0.000;0.000;2022-08-11T05:45:39;20.20;85.70
66710;DHT22;53624;0.000;0.000;2022-08-11T05:48:28;20.50;85.00
66710;DHT22;53624;0.000;0.000;2022-08-11T05:51:13;20.80;85.90
66710;DHT22;53624;0.000;0.000;2022-08-11T05:53:59;20.40;88.40
66710;DHT22;53624;0.000;0.000;2022-08-11T05:56:46;19.70;90.00
66710;DHT22;53624;0.000;0.000;2022-08-11T05:59:17;20.20;89.30
66710;DHT22;53624;0.000;0.000;2022-08-11T06:01:45;20.60;89.60
66710;DHT22;53624;0.000;0.000;2022-08-11T06:04:18;20.70;87.90
66710;DHT22;53624;0.000;0.000;2022-08-11T06:06:47;20.40;90.00
66710;DHT22;53624;0.000;0.000;2022-08-11T06:09:23;20.30;90.00
66710;DHT22;53624;0.000;0.000;2022-08-11T06:11:53;20.50;87.00
66710;DHT22;53624;0.000;0.000;2022-08-11T06:14:32;21.10;86.00
66710;DHT22;53624;0.000;0.000;2022-08-11T06:17:01;22.20;83.70
66710;DHT22;53624;0.000;0.000;2022-08-11T06:19:34;23.20;81.80
66710;DHT22;53624;0.000;0.000;2022-08-11T06:22:03;24.00;76.20
66710;DHT22;53624;0.000;0.000;2022-08-11T06:24:50;24.20;76.40
66710;DHT22;53624;0.000;0.000;2022-08-11T06:27:26;23.50;79.30
66710;DHT22;53624;0.000;0.000;2022-08-11T06:30:00;23.80;78.00
66710;DHT22;53624;0.000;0.000;2022-08-11T06:32:39;24.50;76.00
66710;DHT22;53624;0.000;0.000;2022-08-11T06:35:11;24.70;74.80
66710;DHT22;53624;0.000;0.000;2022-08-11T06:37:47;24.70;73.70
66710;DHT22;53624;0.000;0.000;2022-08-11T06:40:48;24.20;73.50
66710;DHT22;53624;0.000;0.000;2022-08-11T06:43:31;23.50;76.40
66710;DHT22;53624;0.000;0.000;2022-08-11T06:46:11;23.40;77.50
66710;DHT22;53624;0.000;0.000;2022-08-11T06:48:48;23.30;78.30
66710;DHT22;53624;0.000;0.000;2022-08-11T06:51:48;23.20;79.00
66710;DHT22;53624;0.000;0.000;2022-08-11T06:54:28;24.10;77.00
66710;DHT22;53624;0.000;0.000;2022-08-11T06:57:00;24.60;75.20
66710;DHT22;53624;0.000;0.000;2022-08-11T07:00:01;25.10;74.60
66710;DHT22;53624;0.000;0.000;2022-08-11T07:02:56;25.80;72.10
66710;DHT22;53624;0.000;0.000;2022-08-11T07:05:28;26.50;71.30
66710;DHT22;53624;0.000;0.000;2022-08-11T07:14:29;27.40;66.70
66710;DHT22;53624;0.000;0.000;2022-08-11T07:17:14;27.80;66.00
66710;DHT22;53624;0.000;0.000;2022-08-11T07:19:45;26.50;69.70
66710;DHT22;53624;0.000;0.000;2022-08-11T07:22:37;26.20;70.20
66710;DHT22;53624;0.000;0.000;2022-08-11T07:26:52;27.40;67.40
66710;DHT22;53624;0.000;0.000;2022-08-11T07:28:54;27.90;65.60
66710;DHT22;53624;0.000;0.000;2022-08-11T07:31:44;27.70;64.80
66710;DHT22;53624;0.000;0.000;2022-08-11T07:37:46;28.50;64.80
66710;DHT22;53624;0.000;0.000;2022-08-11T07:40:18;28.10;65.00
66710;DHT22;53624;0.000;0.000;2022-08-11T07:42:51;28.50;65.40
66710;DHT22;53624;0.000;0.000;2022-08-11T07:45:20;27.90;66.60
66710;DHT22;53624;0.000;0.000;2022-08-11T07:48:09;27.70;67.60
66710;DHT22;53624;0.000;0.000;2022-08-11T07:50:55;28.80;65.30
66710;DHT22;53624;0.000;0.000;2022-08-11T07:53:58;29.00;66.30
66710;DHT22;53624;0.000;0.000;2022-08-11T07:56:28;29.50;65.10
66710;DHT22;53624;0.000;0.000;2022-08-11T07:58:56;29.70;64.50
66710;DHT22;53624;0.000;0.000;2022-08-11T08:01:50;30.00;63.60
66710;DHT22;53624;0.000;0.000;2022-08-11T08:05:01;30.30;62.60
66710;DHT22;53624;0.000;0.000;2022-08-11T08:08:03;31.00;61.50
66710;DHT22;53624;0.000;0.000;2022-08-11T08:10:53;30.00;62.50
66710;DHT22;53624;0.000;0.000;2022-08-11T08:13:53;30.30;62.50
66710;DHT22;53624;0.000;0.000;2022-08-11T08:16:44;30.00;62.90
66710;DHT22;53624;0.000;0.000;2022-08-11T08:19:42;30.30;63.60
66710;DHT22;53624;0.000;0.000;2022-08-11T08:22:30;31.00;62.20
66710;DHT22;53624;0.000;0.000;2022-08-11T08:32:16;31.00;60.20
66710;DHT22;53624;0.000;0.000;2022-08-11T08:35:12;31.60;59.40
66710;DHT22;53624;0.000;0.000;2022-08-11T08:37:48;31.80;59.00
66710;DHT22;53624;0.000;0.000;2022-08-11T08:40:30;31.70;59.20
66710;DHT22;53624;0.000;0.000;2022-08-11T08:54:20;30.30;63.40
66710;DHT22;53624;0.000;0.000;2022-08-11T09:08:07;30.30;62.20
66710;DHT22;53624;0.000;0.000;2022-08-11T09:21:20;29.70;63.10
66710;DHT22;53624;0.000;0.000;2022-08-11T09:23:57;30.40;62.50
66710;DHT22;53624;0.000;0.000;2022-08-11T09:26:51;31.00;61.20
66710;DHT22;53624;0.000;0.000;2022-08-11T09:32:30;30.50;62.40
66710;DHT22;53624;0.000;0.000;2022-08-11T09:35:17;31.20;61.40
66710;DHT22;53624;0.000;0.000;2022-08-11T09:37:48;31.30;60.70
66710;DHT22;53624;0.000;0.000;2022-08-11T09:40:34;31.10;61.40
66710;DHT22;53624;0.000;0.000;2022-08-11T09:43:04;31.10;61.70
66710;DHT22;53624;0.000;0.000;2022-08-11T09:45:50;31.30;62.90
66710;DHT22;53624;0.000;0.000;2022-08-11T09:48:18;31.60;62.60
66710;DHT22;53624;0.000;0.000;2022-08-11T09:50:47;31.20;61.70
66710;DHT22;53624;0.000;0.000;2022-08-11T09:53:17;30.90;63.90
66710;DHT22;53624;0.000;0.000;2022-08-11T09:55:44;31.00;64.50
66710;DHT22;53624;0.000;0.000;2022-08-11T09:58:13;31.40;63.50
66710;DHT22;53624;0.000;0.000;2022-08-11T10:00:43;31.70;62.90
66710;DHT22;53624;0.000;0.000;2022-08-11T10:03:12;32.00;61.70
66710;DHT22;53624;0.000;0.000;2022-08-11T10:05:42;31.90;61.00
66710;DHT22;53624;0.000;0.000;2022-08-11T10:08:29;31.40;61.90
66710;DHT22;53624;0.000;0.000;2022-08-11T10:10:58;31.30;62.00
66710;DHT22;53624;0.000;0.000;2022-08-11T10:13:28;31.20;62.40
66710;DHT22;53624;0.000;0.000;2022-08-11T10:15:59;31.40;62.10
66710;DHT22;53624;0.000;0.000;2022-08-11T10:18:29;31.20;61.70
66710;DHT22;53624;0.000;0.000;2022-08-11T10:21:16;31.60;61.50
66710;DHT22;53624;0.000;0.000;2022-08-11T10:23:45;31.60;60.70
66710;DHT22;53624;0.000;0.000;2022-08-11T10:26:30;31.60;60.80
66710;DHT22;53624;0.000;0.000;2022-08-11T10:29:19;31.20;61.00
66710;DHT22;53624;0.000;0.000;2022-08-11T10:32:04;31.30;61.90
66710;DHT22;53624;0.000;0.000;2022-08-11T10:34:49;31.00;61.20
66710;DHT22;53624;0.000;0.000;2022-08-11T10:37:18;31.50;60.90
66710;DHT22;53624;0.000;0.000;2022-08-11T10:39:48;31.10;61.20
66710;DHT22;53624;0.000;0.000;2022-08-11T10:42:16;31.30;60.40
66710;DHT22;53624;0.000;0.000;2022-08-11T10:45:02;31.30;59.10
66710;DHT22;53624;0.000;0.000;2022-08-11T10:47:50;31.40;59.70
66710;DHT22;53624;0.000;0.000;2022-08-11T10:50:17;31.70;59.60
66710;DHT22;53624;0.000;0.000;2022-08-11T10:53:02;31.90;59.70
66710;DHT22;53624;0.000;0.000;2022-08-11T10:56:03;32.00;58.30
66710;DHT22;53624;0.000;0.000;2022-08-11T10:58:51;31.50;58.90
66710;DHT22;53624;0.000;0.000;2022-08-11T11:01:21;31.80;59.30
66710;DHT22;53624;0.000;0.000;2022-08-11T11:03:50;31.80;58.10
66710;DHT22;53624;0.000;0.000;2022-08-11T11:06:21;32.10;58.80
66710;DHT22;53624;0.000;0.000;2022-08-11T11:08:51;32.20;57.70
66710;DHT22;53624;0.000;0.000;2022-08-11T11:11:21;32.00;57.80
66710;DHT22;53624;0.000;0.000;2022-08-11T11:14:09;32.20;58.10
66710;DHT22;53624;0.000;0.000;2022-08-11T11:16:54;32.30;57.50
66710;DHT22;53624;0.000;0.000;2022-08-11T11:19:39;32.40;58.00
66710;DHT22;53624;0.000;0.000;2022-08-11T11:22:07;32.50;57.10
66710;DHT22;53624;0.000;0.000;2022-08-11T11:24:52;32.30;56.90
66710;DHT22;53624;0.000;0.000;2022-08-11T11:27:27;32.50;57.50
66710;DHT22;53624;0.000;0.000;2022-08-11T11:29:59;32.50;57.30
66710;DHT22;53624;0.000;0.000;2022-08-11T11:32:30;32.30;57.80
66710;DHT22;53624;0.000;0.000;2022-08-11T11:35:12;32.70;57.70
66710;DHT22;53624;0.000;0.000;2022-08-11T11:37:48;32.70;58.20
66710;DHT22;53624;0.000;0.000;2022-08-11T11:40:16;33.00;56.90
66710;DHT22;53624;0.000;0.000;2022-08-11T11:42:48;33.20;58.00
66710;DHT22;53624;0.000;0.000;2022-08-11T11:45:16;33.50;57.20
66710;DHT22;53624;0.000;0.000;2022-08-11T11:47:45;33.10;57.20
66710;DHT22;53624;0.000;0.000;2022-08-11T11:50:21;33.10;57.70
66710;DHT22;53624;0.000;0.000;2022-08-11T11:52:50;33.20;57.30
66710;DHT22;53624;0.000;0.000;2022-08-11T11:55:18;33.10;56.00
66710;DHT22;53624;0.000;0.000;2022-08-11T11:57:48;33.50;55.20
66710;DHT22;53624;0.000;0.000;2022-08-11T12:00:33;33.70;56.40
66710;DHT22;53624;0.000;0.000;2022-08-11T12:03:19;33.90;55.90
66710;DHT22;53624;0.000;0.000;2022-08-11T12:05:47;33.60;55.40
66710;DHT22;53624;0.000;0.000;2022-08-11T12:08:15;33.90;56.00
66710;DHT22;53624;0.000;0.000;2022-08-11T12:10:43;33.90;55.30
66710;DHT22;53624;0.000;0.000;2022-08-11T12:13:12;34.10;56.00
66710;DHT22;53624;0.000;0.000;2022-08-11T12:15:59;34.00;55.00
66710;DHT22;53624;0.000;0.000;2022-08-11T12:18:30;34.20;54.30
66710;DHT22;53624;0.000;0.000;2022-08-11T12:21:01;34.30;53.40
66710;DHT22;53624;0.000;0.000;2022-08-11T12:23:29;34.10;53.50
66710;DHT22;53624;0.000;0.000;2022-08-11T12:26:14;34.20;53.80
66710;DHT22;53624;0.000;0.000;2022-08-11T12:29:01;33.80;53.40
66710;DHT22;53624;0.000;0.000;2022-08-11T12:31:30;34.20;55.00
66710;DHT22;53624;0.000;0.000;2022-08-11T12:34:01;34.40;53.00
66710;DHT22;53624;0.000;0.000;2022-08-11T12:36:29;34.80;52.80
66710;DHT22;53624;0.000;0.000;2022-08-11T12:38:58;34.60;52.00
66710;DHT22;53624;0.000;0.000;2022-08-11T12:41:26;34.70;51.90
66710;DHT22;53624;0.000;0.000;2022-08-11T12:44:12;34.60;51.70
66710;DHT22;53624;0.000;0.000;2022-08-11T12:46:58;34.20;51.40
66710;DHT22;53624;0.000;0.000;2022-08-11T12:49:28;34.10;52.30
66710;DHT22;53624;0.000;0.000;2022-08-11T12:52:16;34.30;52.10
66710;DHT22;53624;0.000;0.000;2022-08-11T12:54:47;34.70;52.30
66710;DHT22;53624;0.000;0.000;2022-08-11T12:57:17;34.80;51.20
66710;DHT22;53624;0.000;0.000;2022-08-11T13:00:04;34.70;51.60
66710;DHT22;53624;0.000;0.000;2022-08-11T13:02:50;34.70;51.40
66710;DHT22;53624;0.000;0.000;2022-08-11T13:05:35;34.50;51.30
66710;DHT22;53624;0.000;0.000;2022-08-11T13:08:03;34.70;51.00
66710;DHT22;53624;0.000;0.000;2022-08-11T13:10:31;35.20;50.60
66710;DHT22;53624;0.000;0.000;2022-08-11T13:13:17;34.90;51.50
66710;DHT22;53624;0.000;0.000;2022-08-11T13:15:47;34.90;51.80
66710;DHT22;53624;0.000;0.000;2022-08-11T13:18:15;34.80;52.50
66710;DHT22;53624;0.000;0.000;2022-08-11T13:20:44;35.00;52.80
66710;DHT22;53624;0.000;0.000;2022-08-11T13:23:13;35.40;51.10
66710;DHT22;53624;0.000;0.000;2022-08-11T13:25:42;35.00;50.70
66710;DHT22;53624;0.000;0.000;2022-08-11T13:28:10;34.90;50.30
66710;DHT22;53624;0.000;0.000;2022-08-11T13:30:38;35.00;50.40
66710;DHT22;53624;0.000;0.000;2022-08-11T13:33:30;35.30;49.20
66710;DHT22;53624;0.000;0.000;2022-08-11T13:35:58;34.90;49.90
66710;DHT22;53624;0.000;0.000;2022-08-11T13:38:26;35.10;50.10
66710;DHT22;53624;0.000;0.000;2022-08-11T13:40:53;34.80;49.50
66710;DHT22;53624;0.000;0.000;2022-08-11T13:43:22;35.00;48.60
66710;DHT22;53624;0.000;0.000;2022-08-11T13:45:50;35.20;48.60
66710;DHT22;53624;0.000;0.000;2022-08-11T13:48:40;35.30;47.40
66710;DHT22;53624;0.000;0.000;2022-08-11T13:51:08;35.00;47.60
66710;DHT22;53624;0.000;0.000;2022-08-11T13:53:53;35.00;47.90
66710;DHT22;53624;0.000;0.000;2022-08-11T13:56:21;35.10;47.60
66710;DHT22;53624;0.000;0.000;2022-08-11T13:58:52;35.10;46.90
66710;DHT22;53624;0.000;0.000;2022-08-11T14:01:20;35.20;46.60
66710;DHT22;53624;0.000;0.000;2022-08-11T14:03:50;35.20;46.60
66710;DHT22;53624;0.000;0.000;2022-08-11T14:06:19;35.10;44.70
66710;DHT22;53624;0.000;0.000;2022-08-11T14:08:48;35.20;46.40
66710;DHT22;53624;0.000;0.000;2022-08-11T14:11:18;35.40;46.20
66710;DHT22;53624;0.000;0.000;2022-08-11T14:14:04;35.40;45.20
66710;DHT22;53624;0.000;0.000;2022-08-11T14:16:34;35.50;44.60
66710;DHT22;53624;0.000;0.000;2022-08-11T14:19:06;35.40;44.80
66710;DHT22;53624;0.000;0.000;2022-08-11T14:21:37;35.50;45.60
66710;DHT22;53624;0.000;0.000;2022-08-11T14:24:23;35.30;44.90
66710;DHT22;53624;0.000;0.000;2022-08-11T14:26:50;35.30;45.00
66710;DHT22;53624;0.000;0.000;2022-08-11T14:29:19;35.40;43.70
66710;DHT22;53624;0.000;0.000;2022-08-11T14:31:49;35.40;44.80
66710;DHT22;53624;0.000;0.000;2022-08-11T14:34:19;35.40;44.50
66710;DHT22;53624;0.000;0.000;2022-08-11T14:36:48;35.50;43.40
66710;DHT22;53624;0.000;0.000;2022-08-11T14:39:17;35.10;43.80
66710;DHT22;53624;0.000;0.000;2022-08-11T14:41:46;35.40;44.50
66710;DHT22;53624;0.000;0.000;2022-08-11T14:44:33;35.30;43.10
66710;DHT22;53624;0.000;0.000;2022-08-11T14:47:18;35.10;43.50
66710;DHT22;53624;0.000;0.000;2022-08-11T14:49:47;35.20;44.80
66710;DHT22;53624;0.000;0.000;2022-08-11T14:52:17;35.30;44.80
66710;DHT22;53624;0.000;0.000;2022-08-11T14:54:46;35.30;44.20
66710;DHT22;53624;0.000;0.000;2022-08-11T14:57:34;35.40;45.10
66710;DHT22;53624;0.000;0.000;2022-08-11T15:00:03;35.60;43.00
66710;DHT22;53624;0.000;0.000;2022-08-11T15:02:32;35.30;43.60
66710;DHT22;53624;0.000;0.000;2022-08-11T15:05:18;35.20;43.10
66710;DHT22;53624;0.000;0.000;2022-08-11T15:07:46;35.00;43.70
66710;DHT22;53624;0.000;0.000;2022-08-11T15:10:15;35.20;43.70
66710;DHT22;53624;0.000;0.000;2022-08-11T15:12:43;35.00;43.20
66710;DHT22;53624;0.000;0.000;2022-08-11T15:15:11;35.10;42.90
66710;DHT22;53624;0.000;0.000;2022-08-11T15:18:00;34.90;42.80
66710;DHT22;53624;0.000;0.000;2022-08-11T15:20:30;35.10;43.30
66710;DHT22;53624;0.000;0.000;2022-08-11T15:23:15;35.00;43.70
66710;DHT22;53624;0.000;0.000;2022-08-11T15:26:02;35.10;44.10
66710;DHT22;53624;0.000;0.000;2022-08-11T15:28:31;35.20;44.70
66710;DHT22;53624;0.000;0.000;2022-08-11T15:31:18;34.90;44.00
66710;DHT22;53624;0.000;0.000;2022-08-11T15:34:02;34.90;44.10
66710;DHT22;53624;0.000;0.000;2022-08-11T15:36:48;35.00;45.30
66710;DHT22;53624;0.000;0.000;2022-08-11T15:39:34;35.00;44.80
66710;DHT22;53624;0.000;0.000;2022-08-11T15:42:03;34.90;45.20
66710;DHT22;53624;0.000;0.000;2022-08-11T15:44:52;34.50;45.50
66710;DHT22;53624;0.000;0.000;2022-08-11T15:47:40;34.50;45.00
66710;DHT22;53624;0.000;0.000;2022-08-11T15:50:09;34.50;45.00
66710;DHT22;53624;0.000;0.000;2022-08-11T15:52:42;34.40;45.20
66710;DHT22;53624;0.000;0.000;2022-08-11T15:55:12;34.50;46.50
66710;DHT22;53624;0.000;0.000;2022-08-11T15:57:40;34.20;45.20
66710;DHT22;53624;0.000;0.000;2022-08-11T16:00:25;34.20;45.70
66710;DHT22;53624;0.000;0.000;2022-08-11T16:03:10;34.20;46.20
66710;DHT22;53624;0.000;0.000;2022-08-11T16:05:56;34.20;45.80
66710;DHT22;53624;0.000;0.000;2022-08-11T16:08:25;34.20;47.30
66710;DHT22;53624;0.000;0.000;2022-08-11T16:10:54;34.20;46.70
66710;DHT22;53624;0.000;0.000;2022-08-11T16:13:22;34.00;46.10
66710;DHT22;53624;0.000;0.000;2022-08-11T16:16:09;34.00;46.40
66710;DHT22;53624;0.000;0.000;2022-08-11T16:18:42;33.80;46.10
66710;DHT22;53624;0.000;0.000;2022-08-11T16:21:12;33.80;45.40
66710;DHT22;53624;0.000;0.000;2022-08-11T16:23:43;33.80;46.10
66710;DHT22;53624;0.000;0.000;2022-08-11T16:26:12;33.80;47.30
66710;DHT22;53624;0.000;0.000;2022-08-11T16:28:40;33.50;47.30
66710;DHT22;53624;0.000;0.000;2022-08-11T16:31:10;33.50;46.70
66710;DHT22;53624;0.000;0.000;2022-08-11T16:33:39;33.50;46.40
66710;DHT22;53624;0.000;0.000;2022-08-11T16:36:08;33.40;46.50
66710;DHT22;53624;0.000;0.000;2022-08-11T16:38:54;33.30;46.70
66710;DHT22;53624;0.000;0.000;2022-08-11T16:41:23;33.20;46.80
66710;DHT22;53624;0.000;0.000;2022-08-11T16:44:09;33.10;47.30
66710;DHT22;53624;0.000;0.000;2022-08-11T16:46:54;32.90;48.00
66710;DHT22;53624;0.000;0.000;2022-08-11T16:49:30;32.80;48.40
66710;DHT22;53624;0.000;0.000;2022-08-11T16:51:58;32.80;48.20
66710;DHT22;53624;0.000;0.000;2022-08-11T16:54:30;32.80;47.70
66710;DHT22;53624;0.000;0.000;2022-08-11T16:56:59;32.70;47.70
66710;DHT22;53624;0.000;0.000;2022-08-11T16:59:47;32.70;48.30
66710;DHT22;53624;0.000;0.000;2022-08-11T17:02:15;32.50;48.40
66710;DHT22;53624;0.000;0.000;2022-08-11T17:05:07;32.40;49.00
66710;DHT22;53624;0.000;0.000;2022-08-11T17:07:53;32.30;48.10
66710;DHT22;53624;0.000;0.000;2022-08-11T17:10:40;32.40;48.20
66710;DHT22;53624;0.000;0.000;2022-08-11T17:13:30;32.30;49.20
66710;DHT22;53624;0.000;0.000;2022-08-11T17:16:00;32.20;49.00
66710;DHT22;53624;0.000;0.000;2022-08-11T17:18:39;32.10;48.60
66710;DHT22;53624;0.000;0.000;2022-08-11T17:21:19;32.00;49.30
66710;DHT22;53624;0.000;0.000;2022-08-11T17:23:48;31.90;49.90
66710;DHT22;53624;0.000;0.000;2022-08-11T17:26:17;31.90;49.60
66710;DHT22;53624;0.000;0.000;2022-08-11T17:28:47;31.80;49.30
66710;DHT22;53624;0.000;0.000;2022-08-11T17:31:17;31.70;51.00
66710;DHT22;53624;0.000;0.000;2022-08-11T17:33:59;31.70;49.70
66710;DHT22;53624;0.000;0.000;2022-08-11T17:36:44;31.70;50.30
66710;DHT22;53624;0.000;0.000;2022-08-11T17:39:16;31.70;50.60
66710;DHT22;53624;0.000;0.000;2022-08-11T17:41:45;31.60;51.30
66710;DHT22;53624;0.000;0.000;2022-08-11T17:44:31;31.50;51.50
66710;DHT22;53624;0.000;0.000;2022-08-11T17:47:16;31.40;51.60
66710;DHT22;53624;0.000;0.000;2022-08-11T17:50:02;31.40;52.60
66710;DHT22;53624;0.000;0.000;2022-08-11T17:52:30;31.30;52.90
66710;DHT22;53624;0.000;0.000;2022-08-11T17:55:15;31.00;52.60
66710;DHT22;53624;0.000;0.000;2022-08-11T17:58:02;30.90;53.20
66710;DHT22;53624;0.000;0.000;2022-08-11T18:00:47;30.90;52.60
66710;DHT22;53624;0.000;0.000;2022-08-11T18:03:15;30.90;53.10
66710;DHT22;53624;0.000;0.000;2022-08-11T18:05:58;30.80;53.70
66710;DHT22;53624;0.000;0.000;2022-08-11T18:08:27;30.80;54.10
66710;DHT22;53624;0.000;0.000;2022-08-11T18:11:12;30.70;54.20
66710;DHT22;53624;0.000;0.000;2022-08-11T18:13:59;30.50;54.30
66710;DHT22;53624;0.000;0.000;2022-08-11T18:16:45;30.50;54.70
66710;DHT22;53624;0.000;0.000;2022-08-11T18:19:29;30.30;54.80
66710;DHT22;53624;0.000;0.000;2022-08-11T18:22:21;30.20;55.60
66710;DHT22;53624;0.000;0.000;2022-08-11T18:25:08;30.00;55.50
66710;DHT22;53624;0.000;0.000;2022-08-11T18:27:54;29.90;55.20
66710;DHT22;53624;0.000;0.000;2022-08-11T18:30:42;29.80;55.50
66710;DHT22;53624;0.000;0.000;2022-08-11T18:33:29;29.50;54.90
66710;DHT22;53624;0.000;0.000;2022-08-11T18:36:18;29.40;55.60
66710;DHT22;53624;0.000;0.000;2022-08-11T18:39:05;29.40;54.80
66710;DHT22;53624;0.000;0.000;2022-08-11T18:41:50;29.50;54.80
66710;DHT22;53624;0.000;0.000;2022-08-11T18:44:35;29.50;55.20
66710;DHT22;53624;0.000;0.000;2022-08-11T18:47:23;29.50;54.90
66710;DHT22;53624;0.000;0.000;2022-08-11T18:50:09;29.30;55.30
66710;DHT22;53624;0.000;0.000;2022-08-11T18:52:55;29.10;54.90
66710;DHT22;53624;0.000;0.000;2022-08-11T18:55:41;29.00;56.20
66710;DHT22;53624;0.000;0.000;2022-08-11T18:58:27;28.80;56.70
66710;DHT22;53624;0.000;0.000;2022-08-11T19:01:13;28.60;58.00
66710;DHT22;53624;0.000;0.000;2022-08-11T19:04:01;28.60;57.30
66710;DHT22;53624;0.000;0.000;2022-08-11T19:06:47;28.40;57.50
66710;DHT22;53624;0.000;0.000;2022-08-11T19:09:33;28.20;58.40
66710;DHT22;53624;0.000;0.000;2022-08-11T19:12:18;28.30;58.90
66710;DHT22;53624;0.000;0.000;2022-08-11T19:15:05;28.20;58.50
66710;DHT22;53624;0.000;0.000;2022-08-11T19:17:50;28.10;58.90
66710;DHT22;53624;0.000;0.000;2022-08-11T19:20:37;28.00;59.70
66710;DHT22;53624;0.000;0.000;2022-08-11T19:23:27;28.00;59.20
66710;DHT22;53624;0.000;0.000;2022-08-11T19:26:14;27.90;59.70
66710;DHT22;53624;0.000;0.000;2022-08-11T19:28:59;28.00;59.80
66710;DHT22;53624;0.000;0.000;2022-08-11T19:31:45;27.90;60.20
66710;DHT22;53624;0.000;0.000;2022-08-11T19:34:30;27.90;59.60
66710;DHT22;53624;0.000;0.000;2022-08-11T19:37:16;27.80;60.10
66710;DHT22;53624;0.000;0.000;2022-08-11T19:40:05;27.80;60.40
66710;DHT22;53624;0.000;0.000;2022-08-11T19:42:50;27.70;61.10
66710;DHT22;53624;0.000;0.000;2022-08-11T19:45:36;27.70;62.10
66710;DHT22;53624;0.000;0.000;2022-08-11T19:48:22;27.70;62.40
66710;DHT22;53624;0.000;0.000;2022-08-11T19:51:08;27.70;63.00
66710;DHT22;53624;0.000;0.000;2022-08-11T19:53:54;27.80;61.40
66710;DHT22;53624;0.000;0.000;2022-08-11T19:56:40;27.90;61.00
66710;DHT22;53624;0.000;0.000;2022-08-11T19:59:26;28.10;61.00
66710;DHT22;53624;0.000;0.000;2022-08-11T20:02:11;27.90;62.70
66710;DHT22;53624;0.000;0.000;2022-08-11T20:04:56;27.70;62.20
66710;DHT22;53624;0.000;0.000;2022-08-11T20:07:41;27.90;62.00
66710;DHT22;53624;0.000;0.000;2022-08-11T20:10:28;28.00;61.40
66710;DHT22;53624;0.000;0.000;2022-08-11T20:13:14;27.50;63.30
66710;DHT22;53624;0.000;0.000;2022-08-11T20:15:59;27.50;63.50
66710;DHT22;53624;0.000;0.000;2022-08-11T20:18:45;27.50;62.50
66710;DHT22;53624;0.000;0.000;2022-08-11T20:21:35;27.60;62.20
66710;DHT22;53624;0.000;0.000;2022-08-11T20:24:21;27.60;62.10
66710;DHT22;53624;0.000;0.000;2022-08-11T20:27:08;27.50;63.10
66710;DHT22;53624;0.000;0.000;2022-08-11T20:29:53;27.20;63.10
66710;DHT22;53624;0.000;0.000;2022-08-11T20:32:39;27.20;63.30
66710;DHT22;53624;0.000;0.000;2022-08-11T20:35:25;27.10;63.90
66710;DHT22;53624;0.000;0.000;2022-08-11T20:38:10;27.10;64.10
66710;DHT22;53624;0.000;0.000;2022-08-11T20:40:55;27.20;63.70
66710;DHT22;53624;0.000;0.000;2022-08-11T20:43:42;27.10;63.60
66710;DHT22;53624;0.000;0.000;2022-08-11T20:46:27;27.00;63.90
66710;DHT22;53624;0.000;0.000;2022-08-11T20:49:13;27.00;64.40
66710;DHT22;53624;0.000;0.000;2022-08-11T20:51:59;26.90;64.00
66710;DHT22;53624;0.000;0.000;2022-08-11T20:54:45;26.90;63.30
66710;DHT22;53624;0.000;0.000;2022-08-11T20:57:29;26.90;64.40
66710;DHT22;53624;0.000;0.000;2022-08-11T21:00:16;26.90;65.60
66710;DHT22;53624;0.000;0.000;2022-08-11T21:03:01;26.80;65.60
66710;DHT22;53624;0.000;0.000;2022-08-11T21:05:46;26.70;64.70
66710;DHT22;53624;0.000;0.000;2022-08-11T21:08:34;26.70;65.00
66710;DHT22;53624;0.000;0.000;2022-08-11T21:11:19;26.60;65.10
66710;DHT22;53624;0.000;0.000;2022-08-11T21:14:05;26.40;65.30
66710;DHT22;53624;0.000;0.000;2022-08-11T21:16:52;26.30;65.50
66710;DHT22;53624;0.000;0.000;2022-08-11T21:19:41;26.40;64.60
66710;DHT22;53624;0.000;0.000;2022-08-11T21:22:29;26.40;63.60
66710;DHT22;53624;0.000;0.000;2022-08-11T21:25:14;26.20;64.10
66710;DHT22;53624;0.000;0.000;2022-08-11T21:28:01;26.20;63.30
66710;DHT22;53624;0.000;0.000;2022-08-11T21:30:47;26.00;64.10
66710;DHT22;53624;0.000;0.000;2022-08-11T21:33:34;26.20;63.60
66710;DHT22;53624;0.000;0.000;2022-08-11T21:36:19;26.00;64.20
66710;DHT22;53624;0.000;0.000;2022-08-11T21:39:05;26.00;64.20
66710;DHT22;53624;0.000;0.000;2022-08-11T21:41:51;26.00;64.40
66710;DHT22;53624;0.000;0.000;2022-08-11T21:44:36;26.20;64.00
66710;DHT22;53624;0.000;0.000;2022-08-11T21:47:22;26.20;63.90
66710;DHT22;53624;0.000;0.000;2022-08-11T21:50:09;26.00;64.60
66710;DHT22;53624;0.000;0.000;2022-08-11T21:52:54;26.00;64.50
66710;DHT22;53624;0.000;0.000;2022-08-11T21:55:40;26.10;64.30
66710;DHT22;53624;0.000;0.000;2022-08-11T21:58:25;26.10;63.40
66710;DHT22;53624;0.000;0.000;2022-08-11T22:01:10;26.10;63.60
66710;DHT22;53624;0.000;0.000;2022-08-11T22:03:55;26.10;63.90
66710;DHT22;53624;0.000;0.000;2022-08-11T22:06:41;26.00;63.50
66710;DHT22;53624;0.000;0.000;2022-08-11T22:09:27;25.90;63.00
66710;DHT22;53624;0.000;0.000;2022-08-11T22:12:12;26.00;63.80
66710;DHT22;53624;0.000;0.000;2022-08-11T22:14:57;26.00;63.70
66710;DHT22;53624;0.000;0.000;2022-08-11T22:17:42;25.80;63.80
66710;DHT22;53624;0.000;0.000;2022-08-11T22:20:27;25.80;63.70
66710;DHT22;53624;0.000;0.000;2022-08-11T22:23:17;25.80;63.80
66710;DHT22;53624;0.000;0.000;2022-08-11T22:26:02;25.80;63.80
66710;DHT22;53624;0.000;0.000;2022-08-11T22:28:47;25.70;63.70
66710;DHT22;53624;0.000;0.000;2022-08-11T22:31:32;25.70;63.90
66710;DHT22;53624;0.000;0.000;2022-08-11T22:34:18;25.60;64.00
66710;DHT22;53624;0.000;0.000;2022-08-11T22:37:04;25.50;64.50
66710;DHT22;53624;0.000;0.000;2022-08-11T22:39:50;25.50;64.70
66710;DHT22;53624;0.000;0.000;2022-08-11T22:42:36;25.30;64.80
66710;DHT22;53624;0.000;0.000;2022-08-11T22:45:21;25.20;65.10
66710;DHT22;53624;0.000;0.000;2022-08-11T22:48:06;25.20;65.40
66710;DHT22;53624;0.000;0.000;2022-08-11T22:50:51;25.20;65.50
66710;DHT22;53624;0.000;0.000;2022-08-11T22:53:37;25.10;65.50
66710;DHT22;53624;0.000;0.000;2022-08-11T22:56:24;25.10;65.80